sensor_id;sensor_type;location;lat;lon;timestamp;temperature;humidity
10408;DHT22;5250;53.452;10.230;2022-07-23T00:01:03;18.20;99.90
10408;DHT22;5250;53.452;10.230;2022-07-23T00:03:36;18.10;99.90
10408;DHT22;5250;53.452;10.230;2022-07-23T00:06:06;18.10;99.90
10408;DHT22;5250;53.452;10.230;2022-07-23T00:08:36;18.10;99.90
10408;DHT22;5250;53.452;10.230;2022-07-23T00:11:06;18.10;99.90
10408;DHT22;5250;53.452;10.230;2022-07-23T00:13:36;18.10;99.90
10408;DHT22;5250;53.452;10.230;2022-07-23T00:16:07;18.00;99.90
10408;DHT22;5250;53.452;10.230;2022-07-23T00:18:40;18.00;99.90
10408;DHT22;5250;53.452;10.230;2022-07-23T00:21:10;17.90;99.90
10408;DHT22;5250;53.452;10.230;2022-07-23T00:23:40;17.90;99.90
10408;DHT22;5250;53.452;10.230;2022-07-23T00:26:10;17.90;99.90
10408;DHT22;5250;53.452;10.230;2022-07-23T00:28:40;17.90;99.90
10408;DHT22;5250;53.452;10.230;2022-07-23T00:31:10;17.90;99.90
10408;DHT22;5250;53.452;10.230;2022-07-23T00:33:42;17.90;99.90
10408;DHT22;5250;53.452;10.230;2022-07-23T00:36:12;17.90;99.90
10408;DHT22;5250;53.452;10.230;2022-07-23T00:38:42;17.90;99.90
10408;DHT22;5250;53.452;10.230;2022-07-23T00:41:12;17.80;99.90
10408;DHT22;5250;53.452;10.230;2022-07-23T00:43:42;17.80;99.90
10408;DHT22;5250;53.452;10.230;2022-07-23T00:46:12;17.80;99.90
10408;DHT22;5250;53.452;10.230;2022-07-23T00:48:44;17.80;99.90
10408;DHT22;5250;53.452;10.230;2022-07-23T00:51:15;17.70;99.90
10408;DHT22;5250;53.452;10.230;2022-07-23T00:53:48;17.70;99.90
10408;DHT22;5250;53.452;10.230;2022-07-23T00:56:18;17.70;99.90
10408;DHT22;5250;53.452;10.230;2022-07-23T00:58:49;17.70;99.90
10408;DHT22;5250;53.452;10.230;2022-07-23T01:01:19;17.60;99.90
10408;DHT22;5250;53.452;10.230;2022-07-23T01:03:52;17.60;99.90
10408;DHT22;5250;53.452;10.230;2022-07-23T01:06:22;17.50;99.90
10408;DHT22;5250;53.452;10.230;2022-07-23T01:08:52;17.60;99.90
10408;DHT22;5250;53.452;10.230;2022-07-23T01:11:23;17.60;99.90
10408;DHT22;5250;53.452;10.230;2022-07-23T01:13:54;17.60;99.90
10408;DHT22;5250;53.452;10.230;2022-07-23T01:16:25;17.60;99.90
10408;DHT22;5250;53.452;10.230;2022-07-23T01:18:57;17.60;99.90
10408;DHT22;5250;53.452;10.230;2022-07-23T01:21:28;17.60;99.90
10408;DHT22;5250;53.452;10.230;2022-07-23T01:24:02;17.50;99.90
10408;DHT22;5250;53.452;10.230;2022-07-23T01:26:34;17.50;99.90
10408;DHT22;5250;53.452;10.230;2022-07-23T01:29:05;17.50;99.90
10408;DHT22;5250;53.452;10.230;2022-07-23T01:31:35;17.40;99.90
10408;DHT22;5250;53.452;10.230;2022-07-23T01:34:06;17.40;99.90
10408;DHT22;5250;53.452;10.230;2022-07-23T01:36:37;17.50;99.90
10408;DHT22;5250;53.452;10.230;2022-07-23T01:39:11;17.40;99.90
10408;DHT22;5250;53.452;10.230;2022-07-23T01:41:42;17.40;99.90
10408;DHT22;5250;53.452;10.230;2022-07-23T01:44:18;17.30;99.90
10408;DHT22;5250;53.452;10.230;2022-07-23T01:46:48;17.30;99.90
10408;DHT22;5250;53.452;10.230;2022-07-23T01:49:19;17.30;99.90
10408;DHT22;5250;53.452;10.230;2022-07-23T01:51:58;17.30;99.90
10408;DHT22;5250;53.452;10.230;2022-07-23T01:54:44;17.30;99.90
10408;DHT22;5250;53.452;10.230;2022-07-23T01:57:14;17.20;99.90
10408;DHT22;5250;53.452;10.230;2022-07-23T01:59:45;17.20;99.90
10408;DHT22;5250;53.452;10.230;2022-07-23T02:02:18;17.10;99.90
10408;DHT22;5250;53.452;10.230;2022-07-23T02:04:48;17.10;99.90
10408;DHT22;5250;53.452;10.230;2022-07-23T02:07:20;17.10;99.90
10408;DHT22;5250;53.452;10.230;2022-07-23T02:09:54;17.10;99.90
10408;DHT22;5250;53.452;10.230;2022-07-23T02:12:24;17.10;99.90
10408;DHT22;5250;53.452;10.230;2022-07-23T02:14:54;17.10;99.90
10408;DHT22;5250;53.452;10.230;2022-07-23T02:17:25;17.10;99.90
10408;DHT22;5250;53.452;10.230;2022-07-23T02:19:55;17.10;99.90
10408;DHT22;5250;53.452;10.230;2022-07-23T02:22:25;17.10;99.90
10408;DHT22;5250;53.452;10.230;2022-07-23T02:24:57;17.20;99.90
10408;DHT22;5250;53.452;10.230;2022-07-23T02:27:27;17.20;99.90
10408;DHT22;5250;53.452;10.230;2022-07-23T02:29:57;17.20;99.90
10408;DHT22;5250;53.452;10.230;2022-07-23T02:32:28;17.20;99.90
10408;DHT22;5250;53.452;10.230;2022-07-23T02:34:58;17.10;99.90
10408;DHT22;5250;53.452;10.230;2022-07-23T02:37:28;17.10;99.90
10408;DHT22;5250;53.452;10.230;2022-07-23T02:40:01;17.00;99.90
10408;DHT22;5250;53.452;10.230;2022-07-23T02:42:33;17.00;99.90
10408;DHT22;5250;53.452;10.230;2022-07-23T02:45:05;17.00;99.90
10408;DHT22;5250;53.452;10.230;2022-07-23T02:47:35;16.90;99.90
10408;DHT22;5250;53.452;10.230;2022-07-23T02:50:06;16.90;99.90
10408;DHT22;5250;53.452;10.230;2022-07-23T02:52:38;16.90;99.90
10408;DHT22;5250;53.452;10.230;2022-07-23T02:55:10;16.90;99.90
10408;DHT22;5250;53.452;10.230;2022-07-23T02:57:40;16.80;99.90
10408;DHT22;5250;53.452;10.230;2022-07-23T03:00:12;16.70;99.90
10408;DHT22;5250;53.452;10.230;2022-07-23T03:02:42;16.70;99.90
10408;DHT22;5250;53.452;10.230;2022-07-23T03:05:12;16.70;99.90
10408;DHT22;5250;53.452;10.230;2022-07-23T03:07:43;16.70;99.90
10408;DHT22;5250;53.452;10.230;2022-07-23T03:10:15;16.60;99.90
10408;DHT22;5250;53.452;10.230;2022-07-23T03:12:45;16.50;99.90
10408;DHT22;5250;53.452;10.230;2022-07-23T03:15:17;16.50;99.90
10408;DHT22;5250;53.452;10.230;2022-07-23T03:17:47;16.40;99.90
10408;DHT22;5250;53.452;10.230;2022-07-23T03:20:17;16.50;99.90
10408;DHT22;5250;53.452;10.230;2022-07-23T03:22:47;16.50;99.90
10408;DHT22;5250;53.452;10.230;2022-07-23T03:25:20;16.50;99.90
10408;DHT22;5250;53.452;10.230;2022-07-23T03:27:50;16.50;99.90
10408;DHT22;5250;53.452;10.230;2022-07-23T03:30:20;16.40;99.90
10408;DHT22;5250;53.452;10.230;2022-07-23T03:32:50;16.40;99.90
10408;DHT22;5250;53.452;10.230;2022-07-23T03:35:20;16.30;99.90
10408;DHT22;5250;53.452;10.230;2022-07-23T03:38:06;16.30;99.90
10408;DHT22;5250;53.452;10.230;2022-07-23T03:40:39;16.40;99.90
10408;DHT22;5250;53.452;10.230;2022-07-23T03:43:09;16.30;99.90
10408;DHT22;5250;53.452;10.230;2022-07-23T03:45:39;16.40;99.90
10408;DHT22;5250;53.452;10.230;2022-07-23T03:48:09;16.40;99.90
10408;DHT22;5250;53.452;10.230;2022-07-23T03:50:39;16.40;99.90
10408;DHT22;5250;53.452;10.230;2022-07-23T03:53:10;16.40;99.90
10408;DHT22;5250;53.452;10.230;2022-07-23T03:55:42;16.40;99.90
10408;DHT22;5250;53.452;10.230;2022-07-23T03:58:12;16.50;99.90
10408;DHT22;5250;53.452;10.230;2022-07-23T04:00:43;16.50;99.90
10408;DHT22;5250;53.452;10.230;2022-07-23T04:03:13;16.40;99.90
10408;DHT22;5250;53.452;10.230;2022-07-23T04:05:44;16.50;99.90
10408;DHT22;5250;53.452;10.230;2022-07-23T04:08:14;16.50;99.90
10408;DHT22;5250;53.452;10.230;2022-07-23T04:10:52;16.50;99.90
10408;DHT22;5250;53.452;10.230;2022-07-23T04:13:23;16.50;99.90
10408;DHT22;5250;53.452;10.230;2022-07-23T04:15:53;16.60;99.90
10408;DHT22;5250;53.452;10.230;2022-07-23T04:18:23;16.60;99.90
10408;DHT22;5250;53.452;10.230;2022-07-23T04:21:00;16.50;99.90
10408;DHT22;5250;53.452;10.230;2022-07-23T04:23:30;16.50;99.90
10408;DHT22;5250;53.452;10.230;2022-07-23T04:26:03;16.50;99.90
10408;DHT22;5250;53.452;10.230;2022-07-23T04:28:33;16.50;99.90
10408;DHT22;5250;53.452;10.230;2022-07-23T04:31:04;16.50;99.90
10408;DHT22;5250;53.452;10.230;2022-07-23T04:33:36;16.60;99.90
10408;DHT22;5250;53.452;10.230;2022-07-23T04:36:07;16.50;99.90
10408;DHT22;5250;53.452;10.230;2022-07-23T04:38:37;16.60;99.90
10408;DHT22;5250;53.452;10.230;2022-07-23T04:41:10;16.60;99.90
10408;DHT22;5250;53.452;10.230;2022-07-23T04:43:40;16.50;99.90
10408;DHT22;5250;53.452;10.230;2022-07-23T04:46:10;16.60;99.90
10408;DHT22;5250;53.452;10.230;2022-07-23T04:48:46;16.60;99.90
10408;DHT22;5250;53.452;10.230;2022-07-23T04:51:17;16.60;99.90
10408;DHT22;5250;53.452;10.230;2022-07-23T04:53:47;16.60;99.90
10408;DHT22;5250;53.452;10.230;2022-07-23T04:56:19;16.60;99.90
10408;DHT22;5250;53.452;10.230;2022-07-23T04:58:49;16.60;99.90
10408;DHT22;5250;53.452;10.230;2022-07-23T05:01:19;16.60;99.90
10408;DHT22;5250;53.452;10.230;2022-07-23T05:03:49;16.60;99.90
10408;DHT22;5250;53.452;10.230;2022-07-23T05:06:20;16.60;99.90
10408;DHT22;5250;53.452;10.230;2022-07-23T05:08:50;16.60;99.90
10408;DHT22;5250;53.452;10.230;2022-07-23T05:11:23;16.60;99.90
10408;DHT22;5250;53.452;10.230;2022-07-23T05:13:54;16.60;99.90
10408;DHT22;5250;53.452;10.230;2022-07-23T05:16:24;16.60;99.90
10408;DHT22;5250;53.452;10.230;2022-07-23T05:18:59;16.60;99.90
10408;DHT22;5250;53.452;10.230;2022-07-23T05:21:33;16.50;99.90
10408;DHT22;5250;53.452;10.230;2022-07-23T05:24:03;16.50;99.90
10408;DHT22;5250;53.452;10.230;2022-07-23T05:26:36;16.60;99.90
10408;DHT22;5250;53.452;10.230;2022-07-23T05:29:07;16.60;99.90
10408;DHT22;5250;53.452;10.230;2022-07-23T05:31:37;16.70;99.90
10408;DHT22;5250;53.452;10.230;2022-07-23T05:34:07;16.70;99.90
10408;DHT22;5250;53.452;10.230;2022-07-23T05:36:44;16.70;99.90
10408;DHT22;5250;53.452;10.230;2022-07-23T05:39:16;16.60;99.90
10408;DHT22;5250;53.452;10.230;2022-07-23T05:41:48;16.60;99.90
10408;DHT22;5250;53.452;10.230;2022-07-23T05:44:19;16.70;99.90
10408;DHT22;5250;53.452;10.230;2022-07-23T05:46:49;16.70;99.90
10408;DHT22;5250;53.452;10.230;2022-07-23T05:49:22;16.70;99.90
10408;DHT22;5250;53.452;10.230;2022-07-23T05:52:03;16.70;99.90
10408;DHT22;5250;53.452;10.230;2022-07-23T05:55:08;16.70;99.90
10408;DHT22;5250;53.452;10.230;2022-07-23T05:57:42;16.80;99.90
10408;DHT22;5250;53.452;10.230;2022-07-23T06:00:13;16.80;99.90
10408;DHT22;5250;53.452;10.230;2022-07-23T06:02:46;16.80;99.90
10408;DHT22;5250;53.452;10.230;2022-07-23T06:05:23;16.90;99.90
10408;DHT22;5250;53.452;10.230;2022-07-23T06:07:55;17.00;99.90
10408;DHT22;5250;53.452;10.230;2022-07-23T06:10:26;17.00;99.90
10408;DHT22;5250;53.452;10.230;2022-07-23T06:12:59;17.10;99.90
10408;DHT22;5250;53.452;10.230;2022-07-23T06:15:30;17.20;99.90
10408;DHT22;5250;53.452;10.230;2022-07-23T06:18:00;17.30;99.90
10408;DHT22;5250;53.452;10.230;2022-07-23T06:20:30;17.30;99.90
10408;DHT22;5250;53.452;10.230;2022-07-23T06:23:00;17.40;99.90
10408;DHT22;5250;53.452;10.230;2022-07-23T06:25:30;17.40;99.90
10408;DHT22;5250;53.452;10.230;2022-07-23T06:28:03;17.50;99.90
10408;DHT22;5250;53.452;10.230;2022-07-23T06:30:33;17.50;99.90
10408;DHT22;5250;53.452;10.230;2022-07-23T06:33:04;17.50;99.90
10408;DHT22;5250;53.452;10.230;2022-07-23T06:35:35;17.60;99.90
10408;DHT22;5250;53.452;10.230;2022-07-23T06:38:07;17.60;99.90
10408;DHT22;5250;53.452;10.230;2022-07-23T06:40:37;17.70;99.90
10408;DHT22;5250;53.452;10.230;2022-07-23T06:43:09;17.80;99.90
10408;DHT22;5250;53.452;10.230;2022-07-23T06:45:39;17.90;99.90
10408;DHT22;5250;53.452;10.230;2022-07-23T06:48:10;17.80;99.90
10408;DHT22;5250;53.452;10.230;2022-07-23T06:50:40;17.80;99.90
10408;DHT22;5250;53.452;10.230;2022-07-23T06:53:10;17.90;99.90
10408;DHT22;5250;53.452;10.230;2022-07-23T06:55:41;17.90;99.90
10408;DHT22;5250;53.452;10.230;2022-07-23T06:58:14;17.90;99.90
10408;DHT22;5250;53.452;10.230;2022-07-23T07:00:46;18.00;99.90
10408;DHT22;5250;53.452;10.230;2022-07-23T07:03:17;18.10;99.90
10408;DHT22;5250;53.452;10.230;2022-07-23T07:05:46;18.20;99.90
10408;DHT22;5250;53.452;10.230;2022-07-23T07:08:16;18.30;99.90
10408;DHT22;5250;53.452;10.230;2022-07-23T07:10:46;18.20;99.90
10408;DHT22;5250;53.452;10.230;2022-07-23T07:13:19;18.20;99.90
10408;DHT22;5250;53.452;10.230;2022-07-23T07:15:49;18.20;99.90
10408;DHT22;5250;53.452;10.230;2022-07-23T07:18:19;18.10;99.90
10408;DHT22;5250;53.452;10.230;2022-07-23T07:20:49;18.20;99.90
10408;DHT22;5250;53.452;10.230;2022-07-23T07:23:22;18.20;99.90
10408;DHT22;5250;53.452;10.230;2022-07-23T07:25:52;18.20;99.90
10408;DHT22;5250;53.452;10.230;2022-07-23T07:28:25;18.30;99.90
10408;DHT22;5250;53.452;10.230;2022-07-23T07:30:55;18.20;99.90
10408;DHT22;5250;53.452;10.230;2022-07-23T07:33:25;18.20;99.90
10408;DHT22;5250;53.452;10.230;2022-07-23T07:35:55;18.20;99.90
10408;DHT22;5250;53.452;10.230;2022-07-23T07:38:25;18.30;99.90
10408;DHT22;5250;53.452;10.230;2022-07-23T07:40:55;18.30;99.90
10408;DHT22;5250;53.452;10.230;2022-07-23T07:43:28;18.40;99.90
10408;DHT22;5250;53.452;10.230;2022-07-23T07:45:58;18.50;99.90
10408;DHT22;5250;53.452;10.230;2022-07-23T07:48:27;18.70;99.90
10408;DHT22;5250;53.452;10.230;2022-07-23T07:50:58;18.80;99.90
10408;DHT22;5250;53.452;10.230;2022-07-23T07:53:28;18.90;99.90
10408;DHT22;5250;53.452;10.230;2022-07-23T07:55:57;19.00;99.90
10408;DHT22;5250;53.452;10.230;2022-07-23T07:58:30;19.00;99.90
10408;DHT22;5250;53.452;10.230;2022-07-23T08:01:00;18.90;99.90
10408;DHT22;5250;53.452;10.230;2022-07-23T08:03:30;18.90;99.90
10408;DHT22;5250;53.452;10.230;2022-07-23T08:06:03;18.90;99.90
10408;DHT22;5250;53.452;10.230;2022-07-23T08:08:33;18.80;99.90
10408;DHT22;5250;53.452;10.230;2022-07-23T08:11:03;18.90;99.90
10408;DHT22;5250;53.452;10.230;2022-07-23T08:13:36;18.90;99.90
10408;DHT22;5250;53.452;10.230;2022-07-23T08:16:06;18.90;99.90
10408;DHT22;5250;53.452;10.230;2022-07-23T08:18:36;18.90;99.90
10408;DHT22;5250;53.452;10.230;2022-07-23T08:21:07;18.90;99.90
10408;DHT22;5250;53.452;10.230;2022-07-23T08:23:36;18.90;99.90
10408;DHT22;5250;53.452;10.230;2022-07-23T08:26:06;19.00;99.90
10408;DHT22;5250;53.452;10.230;2022-07-23T08:28:39;19.10;99.90
10408;DHT22;5250;53.452;10.230;2022-07-23T08:31:09;19.10;99.90
10408;DHT22;5250;53.452;10.230;2022-07-23T08:33:39;19.20;99.90
10408;DHT22;5250;53.452;10.230;2022-07-23T08:36:09;19.30;99.90
10408;DHT22;5250;53.452;10.230;2022-07-23T08:38:39;19.50;99.90
10408;DHT22;5250;53.452;10.230;2022-07-23T08:41:10;19.60;99.90
10408;DHT22;5250;53.452;10.230;2022-07-23T08:43:44;19.70;99.90
10408;DHT22;5250;53.452;10.230;2022-07-23T08:46:14;19.60;99.90
10408;DHT22;5250;53.452;10.230;2022-07-23T08:48:48;19.50;99.90
10408;DHT22;5250;53.452;10.230;2022-07-23T08:51:18;19.30;99.90
10408;DHT22;5250;53.452;10.230;2022-07-23T08:53:49;19.10;99.90
10408;DHT22;5250;53.452;10.230;2022-07-23T08:56:19;19.00;99.90
10408;DHT22;5250;53.452;10.230;2022-07-23T08:58:53;18.90;99.90
10408;DHT22;5250;53.452;10.230;2022-07-23T09:01:23;19.00;99.90
10408;DHT22;5250;53.452;10.230;2022-07-23T09:03:54;19.00;99.90
10408;DHT22;5250;53.452;10.230;2022-07-23T09:06:24;18.90;99.90
10408;DHT22;5250;53.452;10.230;2022-07-23T09:08:54;18.90;99.90
10408;DHT22;5250;53.452;10.230;2022-07-23T09:11:24;18.80;99.90
10408;DHT22;5250;53.452;10.230;2022-07-23T09:13:56;18.80;99.90
10408;DHT22;5250;53.452;10.230;2022-07-23T09:16:30;18.80;99.90
10408;DHT22;5250;53.452;10.230;2022-07-23T09:19:02;18.90;99.90
10408;DHT22;5250;53.452;10.230;2022-07-23T09:21:33;19.00;99.90
10408;DHT22;5250;53.452;10.230;2022-07-23T09:24:06;19.20;99.90
10408;DHT22;5250;53.452;10.230;2022-07-23T09:26:38;19.40;99.90
10408;DHT22;5250;53.452;10.230;2022-07-23T09:29:13;19.50;99.90
10408;DHT22;5250;53.452;10.230;2022-07-23T09:31:47;19.50;99.90
10408;DHT22;5250;53.452;10.230;2022-07-23T09:34:20;19.60;99.90
10408;DHT22;5250;53.452;10.230;2022-07-23T09:36:52;19.60;99.90
10408;DHT22;5250;53.452;10.230;2022-07-23T09:39:28;19.60;99.90
10408;DHT22;5250;53.452;10.230;2022-07-23T09:42:12;19.70;99.90
10408;DHT22;5250;53.452;10.230;2022-07-23T09:44:46;19.80;99.90
10408;DHT22;5250;53.452;10.230;2022-07-23T09:47:17;19.90;99.90
10408;DHT22;5250;53.452;10.230;2022-07-23T09:49:59;19.90;99.90
10408;DHT22;5250;53.452;10.230;2022-07-23T09:52:32;20.00;99.90
10408;DHT22;5250;53.452;10.230;2022-07-23T09:55:05;20.10;99.90
10408;DHT22;5250;53.452;10.230;2022-07-23T09:57:35;20.20;99.90
10408;DHT22;5250;53.452;10.230;2022-07-23T10:02:54;20.50;99.90
10408;DHT22;5250;53.452;10.230;2022-07-23T10:05:29;20.70;99.90
10408;DHT22;5250;53.452;10.230;2022-07-23T10:08:19;20.70;99.90
10408;DHT22;5250;53.452;10.230;2022-07-23T10:11:03;20.70;99.90
10408;DHT22;5250;53.452;10.230;2022-07-23T10:14:00;20.90;99.90
10408;DHT22;5250;53.452;10.230;2022-07-23T10:16:51;21.00;99.90
10408;DHT22;5250;53.452;10.230;2022-07-23T10:19:24;21.10;99.90
10408;DHT22;5250;53.452;10.230;2022-07-23T10:22:00;21.20;99.90
10408;DHT22;5250;53.452;10.230;2022-07-23T10:24:50;21.30;99.90
10408;DHT22;5250;53.452;10.230;2022-07-23T10:27:43;21.30;99.90
10408;DHT22;5250;53.452;10.230;2022-07-23T10:30:22;21.30;99.90
10408;DHT22;5250;53.452;10.230;2022-07-23T10:33:09;21.10;99.90
10408;DHT22;5250;53.452;10.230;2022-07-23T10:35:48;21.00;99.90
10408;DHT22;5250;53.452;10.230;2022-07-23T10:38:25;20.90;99.90
10408;DHT22;5250;53.452;10.230;2022-07-23T10:40:58;20.80;99.90
10408;DHT22;5250;53.452;10.230;2022-07-23T10:43:31;20.80;99.90
10408;DHT22;5250;53.452;10.230;2022-07-23T10:46:22;20.70;99.90
10408;DHT22;5250;53.452;10.230;2022-07-23T10:49:22;20.70;99.90
10408;DHT22;5250;53.452;10.230;2022-07-23T10:52:19;20.80;99.90
10408;DHT22;5250;53.452;10.230;2022-07-23T10:54:52;20.90;99.90
10408;DHT22;5250;53.452;10.230;2022-07-23T10:57:26;21.10;99.90
10408;DHT22;5250;53.452;10.230;2022-07-23T11:02:54;21.40;99.90
10408;DHT22;5250;53.452;10.230;2022-07-23T11:05:27;21.50;99.90
10408;DHT22;5250;53.452;10.230;2022-07-23T11:08:17;21.30;99.90
10408;DHT22;5250;53.452;10.230;2022-07-23T11:10:55;21.20;99.90
10408;DHT22;5250;53.452;10.230;2022-07-23T11:13:46;21.30;99.90
10408;DHT22;5250;53.452;10.230;2022-07-23T11:16:24;21.60;99.90
10408;DHT22;5250;53.452;10.230;2022-07-23T11:19:05;21.70;99.90
10408;DHT22;5250;53.452;10.230;2022-07-23T11:21:50;21.80;99.90
10408;DHT22;5250;53.452;10.230;2022-07-23T11:24:26;22.00;99.90
10408;DHT22;5250;53.452;10.230;2022-07-23T11:27:02;22.00;99.90
10408;DHT22;5250;53.452;10.230;2022-07-23T11:29:47;22.00;99.90
10408;DHT22;5250;53.452;10.230;2022-07-23T11:32:38;22.20;99.90
10408;DHT22;5250;53.452;10.230;2022-07-23T11:35:19;22.20;99.90
10408;DHT22;5250;53.452;10.230;2022-07-23T11:37:51;22.40;99.90
10408;DHT22;5250;53.452;10.230;2022-07-23T11:40:28;22.60;99.90
10408;DHT22;5250;53.452;10.230;2022-07-23T11:43:00;22.90;99.90
10408;DHT22;5250;53.452;10.230;2022-07-23T11:45:32;22.90;99.90
10408;DHT22;5250;53.452;10.230;2022-07-23T11:48:04;22.80;99.90
10408;DHT22;5250;53.452;10.230;2022-07-23T11:50:35;22.70;99.90
10408;DHT22;5250;53.452;10.230;2022-07-23T11:53:05;22.50;99.90
10408;DHT22;5250;53.452;10.230;2022-07-23T11:55:38;22.50;99.90
10408;DHT22;5250;53.452;10.230;2022-07-23T11:58:08;22.70;99.90
10408;DHT22;5250;53.452;10.230;2022-07-23T12:00:41;22.70;99.90
10408;DHT22;5250;53.452;10.230;2022-07-23T12:03:11;22.60;99.90
10408;DHT22;5250;53.452;10.230;2022-07-23T12:05:41;22.40;99.90
10408;DHT22;5250;53.452;10.230;2022-07-23T12:08:11;22.20;99.90
10408;DHT22;5250;53.452;10.230;2022-07-23T12:10:44;22.20;99.90
10408;DHT22;5250;53.452;10.230;2022-07-23T12:13:16;22.20;99.90
10408;DHT22;5250;53.452;10.230;2022-07-23T12:15:48;22.30;99.90
10408;DHT22;5250;53.452;10.230;2022-07-23T12:18:20;22.30;99.90
10408;DHT22;5250;53.452;10.230;2022-07-23T12:20:53;22.20;99.90
10408;DHT22;5250;53.452;10.230;2022-07-23T12:23:25;22.10;99.90
10408;DHT22;5250;53.452;10.230;2022-07-23T12:26:01;22.30;99.90
10408;DHT22;5250;53.452;10.230;2022-07-23T12:28:34;22.40;99.90
10408;DHT22;5250;53.452;10.230;2022-07-23T12:31:05;22.40;99.90
10408;DHT22;5250;53.452;10.230;2022-07-23T12:33:39;22.10;99.90
10408;DHT22;5250;53.452;10.230;2022-07-23T12:36:10;22.00;99.90
10408;DHT22;5250;53.452;10.230;2022-07-23T12:38:42;21.90;99.90
10408;DHT22;5250;53.452;10.230;2022-07-23T12:41:16;21.70;99.90
10408;DHT22;5250;53.452;10.230;2022-07-23T12:43:46;21.80;99.90
10408;DHT22;5250;53.452;10.230;2022-07-23T12:46:18;21.80;99.90
10408;DHT22;5250;53.452;10.230;2022-07-23T12:48:52;21.90;99.90
10408;DHT22;5250;53.452;10.230;2022-07-23T12:51:25;22.10;99.90
10408;DHT22;5250;53.452;10.230;2022-07-23T12:54:04;22.20;99.90
10408;DHT22;5250;53.452;10.230;2022-07-23T12:56:39;22.50;99.90
10408;DHT22;5250;53.452;10.230;2022-07-23T12:59:15;22.60;99.90
10408;DHT22;5250;53.452;10.230;2022-07-23T13:01:53;22.60;99.90
10408;DHT22;5250;53.452;10.230;2022-07-23T13:04:25;22.50;99.90
10408;DHT22;5250;53.452;10.230;2022-07-23T13:06:57;22.60;99.90
10408;DHT22;5250;53.452;10.230;2022-07-23T13:09:48;22.80;99.90
10408;DHT22;5250;53.452;10.230;2022-07-23T13:12:20;23.00;99.90
10408;DHT22;5250;53.452;10.230;2022-07-23T13:14:50;23.10;99.90
10408;DHT22;5250;53.452;10.230;2022-07-23T13:17:20;23.30;99.90
10408;DHT22;5250;53.452;10.230;2022-07-23T13:19:50;23.30;99.90
10408;DHT22;5250;53.452;10.230;2022-07-23T13:22:22;23.40;99.90
10408;DHT22;5250;53.452;10.230;2022-07-23T13:24:51;23.50;99.90
10408;DHT22;5250;53.452;10.230;2022-07-23T13:27:24;23.60;99.90
10408;DHT22;5250;53.452;10.230;2022-07-23T13:29:54;23.60;99.90
10408;DHT22;5250;53.452;10.230;2022-07-23T13:32:24;23.50;99.90
10408;DHT22;5250;53.452;10.230;2022-07-23T13:34:54;23.40;99.90
10408;DHT22;5250;53.452;10.230;2022-07-23T13:37:24;23.40;99.90
10408;DHT22;5250;53.452;10.230;2022-07-23T13:39:54;23.30;99.90
10408;DHT22;5250;53.452;10.230;2022-07-23T13:42:26;23.30;99.90
10408;DHT22;5250;53.452;10.230;2022-07-23T13:44:57;23.40;99.90
10408;DHT22;5250;53.452;10.230;2022-07-23T13:47:27;23.50;99.90
10408;DHT22;5250;53.452;10.230;2022-07-23T13:49:57;23.70;99.90
10408;DHT22;5250;53.452;10.230;2022-07-23T13:52:27;23.90;99.90
10408;DHT22;5250;53.452;10.230;2022-07-23T13:54:57;24.10;99.90
10408;DHT22;5250;53.452;10.230;2022-07-23T13:57:30;24.20;99.90
10408;DHT22;5250;53.452;10.230;2022-07-23T14:00:01;24.20;99.90
10408;DHT22;5250;53.452;10.230;2022-07-23T14:02:32;24.60;99.90
10408;DHT22;5250;53.452;10.230;2022-07-23T14:05:04;24.80;99.90
10408;DHT22;5250;53.452;10.230;2022-07-23T14:07:34;24.70;99.90
10408;DHT22;5250;53.452;10.230;2022-07-23T14:10:06;24.40;99.90
10408;DHT22;5250;53.452;10.230;2022-07-23T14:12:39;24.00;99.90
10408;DHT22;5250;53.452;10.230;2022-07-23T14:15:10;23.50;99.90
10408;DHT22;5250;53.452;10.230;2022-07-23T14:17:43;23.30;99.90
10408;DHT22;5250;53.452;10.230;2022-07-23T14:20:14;23.40;99.90
10408;DHT22;5250;53.452;10.230;2022-07-23T14:22:44;23.70;99.90
10408;DHT22;5250;53.452;10.230;2022-07-23T14:25:14;23.90;99.90
10408;DHT22;5250;53.452;10.230;2022-07-23T14:27:47;24.10;99.90
10408;DHT22;5250;53.452;10.230;2022-07-23T14:30:18;24.30;99.90
10408;DHT22;5250;53.452;10.230;2022-07-23T14:32:55;25.00;99.90
10408;DHT22;5250;53.452;10.230;2022-07-23T14:35:27;26.20;99.90
10408;DHT22;5250;53.452;10.230;2022-07-23T14:37:57;27.10;99.90
10408;DHT22;5250;53.452;10.230;2022-07-23T14:40:27;27.80;99.90
10408;DHT22;5250;53.452;10.230;2022-07-23T14:42:59;27.90;99.90
10408;DHT22;5250;53.452;10.230;2022-07-23T14:45:29;27.50;99.90
10408;DHT22;5250;53.452;10.230;2022-07-23T14:48:00;27.40;99.90
10408;DHT22;5250;53.452;10.230;2022-07-23T14:50:30;27.00;99.90
10408;DHT22;5250;53.452;10.230;2022-07-23T14:53:00;26.60;99.90
10408;DHT22;5250;53.452;10.230;2022-07-23T14:55:31;25.90;99.90
10408;DHT22;5250;53.452;10.230;2022-07-23T14:58:04;25.40;99.90
10408;DHT22;5250;53.452;10.230;2022-07-23T15:00:35;25.20;99.90
10408;DHT22;5250;53.452;10.230;2022-07-23T15:03:05;25.40;99.90
10408;DHT22;5250;53.452;10.230;2022-07-23T15:05:35;25.40;99.90
10408;DHT22;5250;53.452;10.230;2022-07-23T15:08:05;25.40;99.90
10408;DHT22;5250;53.452;10.230;2022-07-23T15:10:35;25.30;99.90
10408;DHT22;5250;53.452;10.230;2022-07-23T15:13:08;25.10;99.90
10408;DHT22;5250;53.452;10.230;2022-07-23T15:15:38;24.80;99.90
10408;DHT22;5250;53.452;10.230;2022-07-23T15:18:11;25.10;99.90
10408;DHT22;5250;53.452;10.230;2022-07-23T15:20:43;25.50;99.90
10408;DHT22;5250;53.452;10.230;2022-07-23T15:23:14;25.80;99.90
10408;DHT22;5250;53.452;10.230;2022-07-23T15:25:44;25.80;99.90
10408;DHT22;5250;53.452;10.230;2022-07-23T15:28:20;25.50;99.90
10408;DHT22;5250;53.452;10.230;2022-07-23T15:30:50;25.20;99.90
10408;DHT22;5250;53.452;10.230;2022-07-23T15:33:21;25.10;99.90
10408;DHT22;5250;53.452;10.230;2022-07-23T15:35:51;25.30;99.90
10408;DHT22;5250;53.452;10.230;2022-07-23T15:38:23;25.80;99.90
10408;DHT22;5250;53.452;10.230;2022-07-23T15:40:57;26.10;99.90
10408;DHT22;5250;53.452;10.230;2022-07-23T15:43:29;26.50;99.90
10408;DHT22;5250;53.452;10.230;2022-07-23T16:03:16;26.50;99.90
10408;DHT22;5250;53.452;10.230;2022-07-23T16:05:46;26.40;99.90
10408;DHT22;5250;53.452;10.230;2022-07-23T16:08:16;26.00;99.90
10408;DHT22;5250;53.452;10.230;2022-07-23T16:10:46;25.60;99.90
10408;DHT22;5250;53.452;10.230;2022-07-23T16:13:16;25.10;99.90
10408;DHT22;5250;53.452;10.230;2022-07-23T16:15:46;24.70;99.90
10408;DHT22;5250;53.452;10.230;2022-07-23T16:18:19;24.60;99.90
10408;DHT22;5250;53.452;10.230;2022-07-23T16:20:49;24.70;99.90
10408;DHT22;5250;53.452;10.230;2022-07-23T16:23:19;24.70;99.90
10408;DHT22;5250;53.452;10.230;2022-07-23T16:25:50;24.70;99.90